This is the latest recevied weather packets stored in our database for station/object R2AJV-13. If no packets are shown the sender has not sent any weather packets the latest 10 day(s).
| Time | Temp. | Humidity | Pressure | Rain* | Wind** | Luminosity | Snow |
|---|---|---|---|---|---|---|---|
| 1778061662 | 21.11° C | 56% | 994.2 hPa | 0 mm | - | - | - |
| 1778060751 | 21.11° C | 54% | 994 hPa | 0 mm | - | - | - |
| 1778059846 | 20° C | 57% | 994.1 hPa | 0 mm | - | - | - |
| 1778058053 | 20.56° C | 56% | 993.9 hPa | 0 mm | - | - | - |
| 1778057148 | 20° C | 59% | 994 hPa | 0.25 mm | - | - | - |
| 1778056237 | 19.44° C | 59% | 993.9 hPa | 0.25 mm | - | - | - |
| 1778055327 | 19.44° C | 64% | 994 hPa | 0.25 mm | - | - | - |
| 1778054416 | 18.33° C | 67% | 993.9 hPa | 0.25 mm | - | - | - |
| 1778053571 | 17.78° C | 71% | 993.8 hPa | 0 mm | - | - | - |
| 1778052661 | 17.22° C | 72% | 993.8 hPa | 0 mm | - | - | - |
| 1778051750 | 15.56° C | 79% | 993.8 hPa | 0 mm | - | - | - |
| 1778050839 | 13.89° C | 93% | 994.1 hPa | 0 mm | - | - | - |
| 1778049928 | 13.33° C | 93% | 993.8 hPa | 0 mm | - | - | - |
| 1778049023 | 13.33° C | 91% | 993.7 hPa | 0 mm | - | - | - |
| 1778048172 | 13.33° C | 89% | 993.5 hPa | 0 mm | - | - | - |
| 1778047262 | 14.44° C | 85% | 993.7 hPa | 0 mm | - | - | - |
| 1778045447 | 15° C | 77% | 993.9 hPa | 0 mm | - | - | - |
| 1778044536 | 15.56° C | 74% | 993.6 hPa | 0 mm | - | - | - |
| 1778043665 | 15.56° C | 73% | 993.3 hPa | 0 mm | - | - | - |
| 1778042759 | 15.56° C | 73% | 993.1 hPa | 0 mm | - | - | - |
| 1778041848 | 15° C | 77% | 992.9 hPa | 0 mm | - | - | - |
| 1777791642 | 16.11° C | 59% | 998.1 hPa | 0 mm | - | - | - |
| 1777790732 | 16.11° C | 59% | 998.1 hPa | 0 mm | - | - | - |
| 1777789827 | 15.56° C | 60% | 998.1 hPa | 0 mm | - | - | - |
| 1777788917 | 15° C | 62% | 998.2 hPa | 0 mm | - | - | - |
* Rain latest hour (hover to see other rain measurements)
** Current wind speed in m/s (hover to see current wind gust speed)